sensor_id;sensor_type;location;lat;lon;timestamp;pressure;altitude;pressure_sealevel;temperature;humidity
41312;BME280;27061;41.648;24.568;2023-08-31T00:01:01;85665.13;;;18.62;49.75
41312;BME280;27061;41.648;24.568;2023-08-31T00:06:12;85637.63;;;18.34;50.06
41312;BME280;27061;41.648;24.568;2023-08-31T00:08:40;85598.03;;;17.93;49.93
41312;BME280;27061;41.648;24.568;2023-08-31T00:11:07;85670.25;;;18.58;49.67
41312;BME280;27061;41.648;24.568;2023-08-31T00:13:34;85676.34;;;18.46;50.03
41312;BME280;27061;41.648;24.568;2023-08-31T00:16:01;85670.72;;;18.46;50.25
41312;BME280;27061;41.648;24.568;2023-08-31T00:18:29;85600.75;;;17.79;50.21
41312;BME280;27061;41.648;24.568;2023-08-31T00:20:56;85677.88;;;18.43;50.13
41312;BME280;27061;41.648;24.568;2023-08-31T00:23:24;85675.75;;;18.43;50.08
41312;BME280;27061;41.648;24.568;2023-08-31T00:25:52;85599.41;;;17.78;50.20
41312;BME280;27061;41.648;24.568;2023-08-31T00:28:20;85654.88;;;18.23;50.45
41312;BME280;27061;41.648;24.568;2023-08-31T00:30:48;85679.56;;;18.36;50.54
41312;BME280;27061;41.648;24.568;2023-08-31T00:33:16;85672.19;;;18.28;50.78
41312;BME280;27061;41.648;24.568;2023-08-31T00:35:44;85675.09;;;18.26;50.92
41312;BME280;27061;41.648;24.568;2023-08-31T00:38:13;85628.00;;;17.97;50.70
41312;BME280;27061;41.648;24.568;2023-08-31T00:40:42;85652.78;;;18.07;50.88
41312;BME280;27061;41.648;24.568;2023-08-31T00:43:13;85655.97;;;18.14;50.69
41312;BME280;27061;41.648;24.568;2023-08-31T00:45:43;85664.66;;;18.08;51.23
41312;BME280;27061;41.648;24.568;2023-08-31T00:48:12;85670.75;;;18.12;51.21
41312;BME280;27061;41.648;24.568;2023-08-31T00:50:41;85633.56;;;17.80;51.27
41312;BME280;27061;41.648;24.568;2023-08-31T00:53:08;85644.09;;;17.80;51.27
41312;BME280;27061;41.648;24.568;2023-08-31T00:55:36;85648.50;;;17.75;51.70
41312;BME280;27061;41.648;24.568;2023-08-31T00:58:04;85632.88;;;17.63;51.72
41312;BME280;27061;41.648;24.568;2023-08-31T01:03:40;85678.47;;;17.78;52.20
41312;BME280;27061;41.648;24.568;2023-08-31T01:08:53;85673.44;;;17.64;52.57
41312;BME280;27061;41.648;24.568;2023-08-31T01:11:34;85689.16;;;17.55;52.90
41312;BME280;27061;41.648;24.568;2023-08-31T01:14:11;85646.59;;;17.17;53.20
41312;BME280;27061;41.648;24.568;2023-08-31T01:16:39;85683.28;;;17.44;53.45
41312;BME280;27061;41.648;24.568;2023-08-31T01:22:00;85691.50;;;17.48;53.05
41312;BME280;27061;41.648;24.568;2023-08-31T01:24:31;85625.91;;;16.91;53.37
41312;BME280;27061;41.648;24.568;2023-08-31T01:26:58;85651.88;;;17.06;53.55
41312;BME280;27061;41.648;24.568;2023-08-31T01:29:26;85687.84;;;17.35;53.55
41312;BME280;27061;41.648;24.568;2023-08-31T01:31:53;85680.50;;;17.44;53.15
41312;BME280;27061;41.648;24.568;2023-08-31T01:34:21;85640.94;;;17.00;53.41
41312;BME280;27061;41.648;24.568;2023-08-31T01:37:18;85639.66;;;16.97;53.63
41312;BME280;27061;41.648;24.568;2023-08-31T01:39:52;85678.56;;;17.22;53.67
41312;BME280;27061;41.648;24.568;2023-08-31T01:42:22;85701.66;;;17.39;53.53
41312;BME280;27061;41.648;24.568;2023-08-31T01:44:56;85689.78;;;17.39;53.51
41312;BME280;27061;41.648;24.568;2023-08-31T01:47:25;85680.44;;;17.28;53.89
41312;BME280;27061;41.648;24.568;2023-08-31T01:49:52;85661.13;;;17.03;54.23
41312;BME280;27061;41.648;24.568;2023-08-31T01:52:20;85686.88;;;17.24;54.41
41312;BME280;27061;41.648;24.568;2023-08-31T01:54:47;85689.16;;;17.19;54.32
41312;BME280;27061;41.648;24.568;2023-08-31T01:57:14;85680.38;;;17.11;54.49
41312;BME280;27061;41.648;24.568;2023-08-31T02:00:00;85689.59;;;17.26;54.20
41312;BME280;27061;41.648;24.568;2023-08-31T02:02:40;85616.94;;;16.51;55.09
41312;BME280;27061;41.648;24.568;2023-08-31T02:05:08;85616.00;;;16.57;54.89
41312;BME280;27061;41.648;24.568;2023-08-31T02:07:35;85632.34;;;16.69;55.09
41312;BME280;27061;41.648;24.568;2023-08-31T02:10:03;85641.03;;;16.79;55.00
41312;BME280;27061;41.648;24.568;2023-08-31T02:18:03;85676.00;;;16.97;55.28
41312;BME280;27061;41.648;24.568;2023-08-31T02:20:30;85689.91;;;16.99;55.91
41312;BME280;27061;41.648;24.568;2023-08-31T02:22:58;85632.91;;;16.34;56.56
41312;BME280;27061;41.648;24.568;2023-08-31T02:25:25;85683.03;;;16.77;56.40
41312;BME280;27061;41.648;24.568;2023-08-31T02:27:54;85676.09;;;16.76;56.25
41312;BME280;27061;41.648;24.568;2023-08-31T02:30:22;85617.00;;;16.30;55.67
41312;BME280;27061;41.648;24.568;2023-08-31T02:32:49;85698.06;;;16.87;56.35
41312;BME280;27061;41.648;24.568;2023-08-31T02:35:16;85608.16;;;16.24;56.20
41312;BME280;27061;41.648;24.568;2023-08-31T02:37:44;85692.78;;;16.78;56.43
41312;BME280;27061;41.648;24.568;2023-08-31T02:40:11;85699.59;;;16.83;56.22
41312;BME280;27061;41.648;24.568;2023-08-31T02:42:39;85706.53;;;16.84;56.20
41312;BME280;27061;41.648;24.568;2023-08-31T02:45:06;85712.22;;;16.82;56.45
41312;BME280;27061;41.648;24.568;2023-08-31T02:47:33;85705.34;;;16.79;56.27
41312;BME280;27061;41.648;24.568;2023-08-31T02:50:01;85718.69;;;16.77;56.44
41312;BME280;27061;41.648;24.568;2023-08-31T02:52:28;85711.91;;;16.72;56.78
41312;BME280;27061;41.648;24.568;2023-08-31T02:54:55;85620.09;;;16.01;57.09
41312;BME280;27061;41.648;24.568;2023-08-31T02:57:22;85654.25;;;16.23;57.29
41312;BME280;27061;41.648;24.568;2023-08-31T02:59:50;85670.28;;;16.43;57.04
41312;BME280;27061;41.648;24.568;2023-08-31T03:02:18;85711.50;;;16.63;57.47
41312;BME280;27061;41.648;24.568;2023-08-31T03:04:45;85712.72;;;16.68;57.05
41312;BME280;27061;41.648;24.568;2023-08-31T03:07:15;85714.94;;;16.45;57.98
41312;BME280;27061;41.648;24.568;2023-08-31T03:09:43;85714.88;;;16.47;57.96
41312;BME280;27061;41.648;24.568;2023-08-31T03:12:10;85644.38;;;15.86;58.13
41312;BME280;27061;41.648;24.568;2023-08-31T03:14:37;85701.03;;;16.43;57.74
41312;BME280;27061;41.648;24.568;2023-08-31T03:17:04;85689.28;;;16.20;58.65
41312;BME280;27061;41.648;24.568;2023-08-31T03:19:31;85696.78;;;16.25;58.62
41312;BME280;27061;41.648;24.568;2023-08-31T03:21:58;85695.00;;;16.16;59.24
41312;BME280;27061;41.648;24.568;2023-08-31T03:24:25;85680.38;;;15.94;59.16
41312;BME280;27061;41.648;24.568;2023-08-31T03:27:01;85703.97;;;15.99;59.91
41312;BME280;27061;41.648;24.568;2023-08-31T03:29:30;85707.41;;;16.00;59.74
41312;BME280;27061;41.648;24.568;2023-08-31T03:32:00;85634.94;;;15.56;59.33
41312;BME280;27061;41.648;24.568;2023-08-31T03:34:29;85653.44;;;15.66;59.58
41312;BME280;27061;41.648;24.568;2023-08-31T03:36:58;85707.22;;;16.06;59.09
41312;BME280;27061;41.648;24.568;2023-08-31T03:39:26;85707.50;;;15.98;59.65
41312;BME280;27061;41.648;24.568;2023-08-31T03:41:53;85699.81;;;15.98;59.97
41312;BME280;27061;41.648;24.568;2023-08-31T03:44:21;85708.25;;;15.96;59.86
41312;BME280;27061;41.648;24.568;2023-08-31T03:46:49;85703.97;;;15.99;59.73
41312;BME280;27061;41.648;24.568;2023-08-31T03:49:16;85715.13;;;15.99;59.73
41312;BME280;27061;41.648;24.568;2023-08-31T03:51:44;85719.06;;;15.86;60.43
41312;BME280;27061;41.648;24.568;2023-08-31T03:54:12;85724.50;;;15.90;60.31
41312;BME280;27061;41.648;24.568;2023-08-31T03:56:39;85712.41;;;15.77;60.88
41312;BME280;27061;41.648;24.568;2023-08-31T03:59:07;85715.09;;;15.79;60.99
41312;BME280;27061;41.648;24.568;2023-08-31T04:01:34;85698.22;;;15.62;60.74
41312;BME280;27061;41.648;24.568;2023-08-31T04:04:01;85659.34;;;15.12;61.53
41312;BME280;27061;41.648;24.568;2023-08-31T04:06:30;85662.34;;;15.27;60.91
41312;BME280;27061;41.648;24.568;2023-08-31T04:08:57;85729.56;;;15.85;61.15
41312;BME280;27061;41.648;24.568;2023-08-31T04:11:25;85736.78;;;15.78;61.40
41312;BME280;27061;41.648;24.568;2023-08-31T04:13:53;85701.06;;;15.60;61.12
41312;BME280;27061;41.648;24.568;2023-08-31T04:16:20;85737.66;;;15.93;61.11
41312;BME280;27061;41.648;24.568;2023-08-31T04:18:48;85658.28;;;15.24;61.47
41312;BME280;27061;41.648;24.568;2023-08-31T04:21:18;85715.09;;;15.58;61.41
41312;BME280;27061;41.648;24.568;2023-08-31T04:23:45;85743.84;;;15.96;61.07
41312;BME280;27061;41.648;24.568;2023-08-31T04:26:13;85749.97;;;16.00;60.97
41312;BME280;27061;41.648;24.568;2023-08-31T04:28:41;85763.06;;;16.06;61.20
41312;BME280;27061;41.648;24.568;2023-08-31T04:31:09;85758.44;;;15.98;60.78
41312;BME280;27061;41.648;24.568;2023-08-31T04:33:37;85687.31;;;15.54;60.41
41312;BME280;27061;41.648;24.568;2023-08-31T04:36:05;85742.44;;;15.97;60.54
41312;BME280;27061;41.648;24.568;2023-08-31T04:38:34;85766.19;;;16.17;60.98
41312;BME280;27061;41.648;24.568;2023-08-31T04:41:01;85732.19;;;15.89;61.48
41312;BME280;27061;41.648;24.568;2023-08-31T04:43:32;85768.66;;;16.27;61.43
41312;BME280;27061;41.648;24.568;2023-08-31T04:45:59;85774.09;;;16.31;61.23
41312;BME280;27061;41.648;24.568;2023-08-31T04:48:26;85767.41;;;16.22;63.69
41312;BME280;27061;41.648;24.568;2023-08-31T04:50:56;85769.31;;;16.27;62.85
41312;BME280;27061;41.648;24.568;2023-08-31T04:53:24;85712.81;;;15.85;63.16
41312;BME280;27061;41.648;24.568;2023-08-31T04:55:52;85775.31;;;16.36;62.37
41312;BME280;27061;41.648;24.568;2023-08-31T04:58:20;85767.00;;;16.34;62.68
41312;BME280;27061;41.648;24.568;2023-08-31T05:00:53;85755.16;;;16.33;62.45
41312;BME280;27061;41.648;24.568;2023-08-31T05:03:21;85760.72;;;16.33;61.67
41312;BME280;27061;41.648;24.568;2023-08-31T05:05:48;85695.66;;;15.97;62.33
41312;BME280;27061;41.648;24.568;2023-08-31T05:08:16;85775.97;;;16.57;65.91
41312;BME280;27061;41.648;24.568;2023-08-31T05:10:46;85754.72;;;16.45;64.38
41312;BME280;27061;41.648;24.568;2023-08-31T05:13:13;85739.13;;;16.32;63.33
41312;BME280;27061;41.648;24.568;2023-08-31T05:15:41;85770.13;;;16.65;62.58
41312;BME280;27061;41.648;24.568;2023-08-31T05:18:08;85788.97;;;16.86;63.43
41312;BME280;27061;41.648;24.568;2023-08-31T05:20:39;85762.81;;;16.74;62.78
41312;BME280;27061;41.648;24.568;2023-08-31T05:23:06;85785.97;;;16.92;62.82
41312;BME280;27061;41.648;24.568;2023-08-31T05:25:33;85762.31;;;16.89;62.72
41312;BME280;27061;41.648;24.568;2023-08-31T05:28:00;85779.56;;;17.14;62.49
41312;BME280;27061;41.648;24.568;2023-08-31T05:30:28;85751.44;;;16.99;62.61
41312;BME280;27061;41.648;24.568;2023-08-31T05:32:55;85736.78;;;16.99;62.19
41312;BME280;27061;41.648;24.568;2023-08-31T05:35:22;85760.59;;;17.16;62.20
41312;BME280;27061;41.648;24.568;2023-08-31T05:37:49;85754.16;;;17.20;62.38
41312;BME280;27061;41.648;24.568;2023-08-31T05:40:16;85782.28;;;17.53;62.28
41312;BME280;27061;41.648;24.568;2023-08-31T05:42:49;85777.75;;;17.63;62.13
41312;BME280;27061;41.648;24.568;2023-08-31T05:45:16;85745.06;;;17.38;62.66
41312;BME280;27061;41.648;24.568;2023-08-31T05:47:43;85790.22;;;17.84;61.96
41312;BME280;27061;41.648;24.568;2023-08-31T05:50:10;85776.22;;;17.84;61.50
41312;BME280;27061;41.648;24.568;2023-08-31T05:52:37;85785.25;;;18.04;61.36
41312;BME280;27061;41.648;24.568;2023-08-31T05:55:04;85782.13;;;18.12;61.76
41312;BME280;27061;41.648;24.568;2023-08-31T05:57:33;85787.91;;;18.24;61.81
41312;BME280;27061;41.648;24.568;2023-08-31T06:00:00;85786.16;;;18.34;61.01
41312;BME280;27061;41.648;24.568;2023-08-31T06:02:38;85744.78;;;18.17;59.68
41312;BME280;27061;41.648;24.568;2023-08-31T06:05:07;85747.69;;;18.32;59.69
41312;BME280;27061;41.648;24.568;2023-08-31T06:10:30;85794.25;;;18.75;58.25
41312;BME280;27061;41.648;24.568;2023-08-31T06:12:57;85749.47;;;18.40;57.96
41312;BME280;27061;41.648;24.568;2023-08-31T06:15:24;85684.69;;;17.98;58.20
41312;BME280;27061;41.648;24.568;2023-08-31T06:17:51;85781.44;;;18.80;58.08
41312;BME280;27061;41.648;24.568;2023-08-31T06:20:18;85763.53;;;18.73;57.98
41312;BME280;27061;41.648;24.568;2023-08-31T06:22:45;85736.13;;;18.57;59.15
41312;BME280;27061;41.648;24.568;2023-08-31T06:25:13;85805.13;;;19.17;59.48
41312;BME280;27061;41.648;24.568;2023-08-31T06:27:42;85776.41;;;18.99;58.86
41312;BME280;27061;41.648;24.568;2023-08-31T06:30:10;85797.97;;;19.20;58.39
41312;BME280;27061;41.648;24.568;2023-08-31T06:32:46;85804.31;;;19.35;58.73
41312;BME280;27061;41.648;24.568;2023-08-31T06:35:14;85803.72;;;19.32;60.12
41312;BME280;27061;41.648;24.568;2023-08-31T06:37:45;85807.22;;;19.33;61.15
41312;BME280;27061;41.648;24.568;2023-08-31T06:40:12;85732.22;;;18.83;60.50
41312;BME280;27061;41.648;24.568;2023-08-31T06:42:40;85790.75;;;19.39;59.45
41312;BME280;27061;41.648;24.568;2023-08-31T06:45:08;85809.13;;;19.53;58.68
41312;BME280;27061;41.648;24.568;2023-08-31T06:47:35;85765.28;;;19.29;57.13
41312;BME280;27061;41.648;24.568;2023-08-31T06:50:03;85814.03;;;19.69;56.30
41312;BME280;27061;41.648;24.568;2023-08-31T06:52:31;85798.75;;;19.50;55.63
41312;BME280;27061;41.648;24.568;2023-08-31T06:54:58;85744.56;;;19.22;55.25
41312;BME280;27061;41.648;24.568;2023-08-31T06:57:27;85755.41;;;19.30;57.57
41312;BME280;27061;41.648;24.568;2023-08-31T06:59:54;85821.81;;;19.84;58.71
41312;BME280;27061;41.648;24.568;2023-08-31T07:02:22;85832.19;;;19.87;59.14
41312;BME280;27061;41.648;24.568;2023-08-31T07:04:51;85834.31;;;19.87;58.42
41312;BME280;27061;41.648;24.568;2023-08-31T07:07:19;85740.47;;;19.19;58.18
41312;BME280;27061;41.648;24.568;2023-08-31T07:09:47;85838.19;;;19.94;58.33
41312;BME280;27061;41.648;24.568;2023-08-31T07:12:18;85828.16;;;19.99;57.93
41312;BME280;27061;41.648;24.568;2023-08-31T07:14:45;85834.53;;;19.97;58.27
41312;BME280;27061;41.648;24.568;2023-08-31T07:17:12;85817.38;;;19.89;59.17
41312;BME280;27061;41.648;24.568;2023-08-31T07:19:39;85835.69;;;19.88;59.84
41312;BME280;27061;41.648;24.568;2023-08-31T07:22:07;85735.00;;;19.31;59.57
41312;BME280;27061;41.648;24.568;2023-08-31T07:24:34;85843.56;;;20.15;59.90
41312;BME280;27061;41.648;24.568;2023-08-31T07:30:05;85594.16;;;18.35;59.59
41312;BME280;27061;41.648;24.568;2023-08-31T07:32:33;85808.94;;;20.03;58.93
41312;BME280;27061;41.648;24.568;2023-08-31T07:35:00;85851.47;;;20.41;58.07
41312;BME280;27061;41.648;24.568;2023-08-31T07:37:28;85831.41;;;20.35;58.18
41312;BME280;27061;41.648;24.568;2023-08-31T07:39:55;85841.69;;;20.70;57.88
41312;BME280;27061;41.648;24.568;2023-08-31T07:42:22;85833.06;;;20.74;57.39
41312;BME280;27061;41.648;24.568;2023-08-31T07:44:50;85824.41;;;20.78;56.53
41312;BME280;27061;41.648;24.568;2023-08-31T07:47:17;85840.59;;;20.92;55.82
41312;BME280;27061;41.648;24.568;2023-08-31T07:49:44;85846.72;;;20.97;55.36
41312;BME280;27061;41.648;24.568;2023-08-31T07:52:12;85843.50;;;21.05;55.12
41312;BME280;27061;41.648;24.568;2023-08-31T07:54:39;85824.31;;;20.95;54.27
41312;BME280;27061;41.648;24.568;2023-08-31T07:57:06;85814.69;;;21.04;54.32
41312;BME280;27061;41.648;24.568;2023-08-31T07:59:33;85837.81;;;21.34;54.87
41312;BME280;27061;41.648;24.568;2023-08-31T08:02:00;85827.91;;;21.35;54.06
41312;BME280;27061;41.648;24.568;2023-08-31T08:04:28;85801.06;;;21.24;54.00
41312;BME280;27061;41.648;24.568;2023-08-31T08:06:56;85851.03;;;21.65;53.07
41312;BME280;27061;41.648;24.568;2023-08-31T08:09:24;85804.53;;;21.39;52.81
41312;BME280;27061;41.648;24.568;2023-08-31T08:11:51;85800.69;;;21.44;52.86
41312;BME280;27061;41.648;24.568;2023-08-31T08:14:18;85794.28;;;21.46;52.47
41312;BME280;27061;41.648;24.568;2023-08-31T08:16:45;85830.31;;;21.71;51.40
41312;BME280;27061;41.648;24.568;2023-08-31T08:19:13;85829.16;;;21.66;51.21
41312;BME280;27061;41.648;24.568;2023-08-31T08:21:40;85774.09;;;21.41;51.27
41312;BME280;27061;41.648;24.568;2023-08-31T08:24:07;85697.00;;;20.94;50.65
41312;BME280;27061;41.648;24.568;2023-08-31T08:26:34;85791.97;;;21.63;50.50
41312;BME280;27061;41.648;24.568;2023-08-31T08:29:01;85852.38;;;22.21;52.10
41312;BME280;27061;41.648;24.568;2023-08-31T08:31:29;85851.59;;;22.35;49.19
41312;BME280;27061;41.648;24.568;2023-08-31T08:33:57;85833.88;;;22.24;48.78
41312;BME280;27061;41.648;24.568;2023-08-31T08:36:24;85843.25;;;22.33;46.78
41312;BME280;27061;41.648;24.568;2023-08-31T08:38:51;85848.25;;;22.45;48.31
41312;BME280;27061;41.648;24.568;2023-08-31T08:41:23;85792.00;;;22.16;49.30
41312;BME280;27061;41.648;24.568;2023-08-31T08:43:51;85830.41;;;22.61;49.43
41312;BME280;27061;41.648;24.568;2023-08-31T08:46:19;85839.34;;;22.91;49.94
41312;BME280;27061;41.648;24.568;2023-08-31T08:48:47;85794.19;;;22.53;50.52
41312;BME280;27061;41.648;24.568;2023-08-31T08:51:14;85804.91;;;22.89;48.42
41312;BME280;27061;41.648;24.568;2023-08-31T08:53:43;85841.22;;;23.20;48.44
41312;BME280;27061;41.648;24.568;2023-08-31T08:56:10;85841.22;;;23.33;47.60
41312;BME280;27061;41.648;24.568;2023-08-31T08:58:38;85786.06;;;22.98;48.40
41312;BME280;27061;41.648;24.568;2023-08-31T09:01:07;85837.56;;;23.47;48.01
41312;BME280;27061;41.648;24.568;2023-08-31T09:03:34;85821.00;;;23.41;48.81
41312;BME280;27061;41.648;24.568;2023-08-31T09:06:02;85773.59;;;23.18;48.82
41312;BME280;27061;41.648;24.568;2023-08-31T09:08:31;85838.03;;;23.88;48.36
41312;BME280;27061;41.648;24.568;2023-08-31T09:10:58;85833.28;;;23.84;47.17
41312;BME280;27061;41.648;24.568;2023-08-31T09:13:27;85794.03;;;23.67;46.50
41312;BME280;27061;41.648;24.568;2023-08-31T09:15:56;85845.75;;;24.13;46.08
41312;BME280;27061;41.648;24.568;2023-08-31T09:18:28;85839.22;;;24.27;46.94
41312;BME280;27061;41.648;24.568;2023-08-31T09:20:56;85803.81;;;24.04;45.74
41312;BME280;27061;41.648;24.568;2023-08-31T09:23:26;85803.31;;;24.13;44.71
41312;BME280;27061;41.648;24.568;2023-08-31T09:25:55;85832.47;;;24.45;44.91
41312;BME280;27061;41.648;24.568;2023-08-31T09:28:24;85838.31;;;24.54;45.22
41312;BME280;27061;41.648;24.568;2023-08-31T09:31:06;85817.22;;;24.40;43.40
41312;BME280;27061;41.648;24.568;2023-08-31T09:33:36;85838.72;;;24.58;43.84
41312;BME280;27061;41.648;24.568;2023-08-31T09:36:06;85842.88;;;24.59;42.75
41312;BME280;27061;41.648;24.568;2023-08-31T09:38:42;85847.56;;;24.75;43.14
41312;BME280;27061;41.648;24.568;2023-08-31T09:41:12;85801.66;;;24.62;42.36
41312;BME280;27061;41.648;24.568;2023-08-31T09:43:41;85836.56;;;24.93;42.21
41312;BME280;27061;41.648;24.568;2023-08-31T09:46:08;85825.50;;;24.89;42.92
41312;BME280;27061;41.648;24.568;2023-08-31T09:48:36;85837.41;;;25.02;42.84
41312;BME280;27061;41.648;24.568;2023-08-31T09:51:05;85841.22;;;25.09;42.90
41312;BME280;27061;41.648;24.568;2023-08-31T09:53:36;85819.34;;;24.97;42.70
41312;BME280;27061;41.648;24.568;2023-08-31T09:56:06;85844.78;;;25.31;43.01
41312;BME280;27061;41.648;24.568;2023-08-31T09:58:34;85844.78;;;25.31;42.55
41312;BME280;27061;41.648;24.568;2023-08-31T10:01:02;85824.09;;;25.22;43.30
41312;BME280;27061;41.648;24.568;2023-08-31T10:03:42;85801.28;;;25.13;42.68
41312;BME280;27061;41.648;24.568;2023-08-31T10:06:10;85840.25;;;25.68;42.76
41312;BME280;27061;41.648;24.568;2023-08-31T10:08:38;85825.81;;;25.61;40.27
41312;BME280;27061;41.648;24.568;2023-08-31T10:11:06;85841.88;;;25.86;39.27
41312;BME280;27061;41.648;24.568;2023-08-31T10:13:38;85844.44;;;25.90;38.91
41312;BME280;27061;41.648;24.568;2023-08-31T10:16:10;85842.28;;;25.91;39.97
41312;BME280;27061;41.648;24.568;2023-08-31T10:18:38;85845.66;;;25.93;37.63
41312;BME280;27061;41.648;24.568;2023-08-31T10:21:05;85850.78;;;25.91;38.59
41312;BME280;27061;41.648;24.568;2023-08-31T10:23:33;85855.09;;;26.00;37.73
41312;BME280;27061;41.648;24.568;2023-08-31T10:26:05;85841.47;;;25.92;38.55
41312;BME280;27061;41.648;24.568;2023-08-31T10:31:31;85840.78;;;25.92;41.01
41312;BME280;27061;41.648;24.568;2023-08-31T10:34:00;85846.22;;;25.85;40.30
41312;BME280;27061;41.648;24.568;2023-08-31T10:36:46;85841.72;;;25.88;39.58
41312;BME280;27061;41.648;24.568;2023-08-31T10:39:21;85853.50;;;26.03;39.48
41312;BME280;27061;41.648;24.568;2023-08-31T10:41:56;85846.03;;;26.08;36.90
41312;BME280;27061;41.648;24.568;2023-08-31T10:44:25;85815.41;;;26.00;39.98
41312;BME280;27061;41.648;24.568;2023-08-31T10:46:53;85838.06;;;26.21;39.66
41312;BME280;27061;41.648;24.568;2023-08-31T10:49:22;85819.56;;;26.12;35.92
41312;BME280;27061;41.648;24.568;2023-08-31T10:51:54;85854.16;;;26.36;36.78
41312;BME280;27061;41.648;24.568;2023-08-31T10:54:32;85837.13;;;26.36;37.01
41312;BME280;27061;41.648;24.568;2023-08-31T10:57:07;85850.16;;;26.63;36.18
41312;BME280;27061;41.648;24.568;2023-08-31T10:59:46;85849.47;;;26.73;34.75
41312;BME280;27061;41.648;24.568;2023-08-31T11:05:14;85846.38;;;26.66;31.31
41312;BME280;27061;41.648;24.568;2023-08-31T11:07:46;85840.56;;;26.68;34.08
41312;BME280;27061;41.648;24.568;2023-08-31T11:10:23;85842.31;;;26.63;31.75
41312;BME280;27061;41.648;24.568;2023-08-31T11:12:54;85813.03;;;26.56;31.84
41312;BME280;27061;41.648;24.568;2023-08-31T11:15:23;85831.06;;;26.72;30.84
41312;BME280;27061;41.648;24.568;2023-08-31T11:17:51;85820.00;;;26.68;30.16
41312;BME280;27061;41.648;24.568;2023-08-31T11:20:21;85818.13;;;26.64;31.11
41312;BME280;27061;41.648;24.568;2023-08-31T11:22:50;85828.97;;;26.51;30.56
41312;BME280;27061;41.648;24.568;2023-08-31T11:25:20;85828.97;;;26.51;30.97
41312;BME280;27061;41.648;24.568;2023-08-31T11:27:59;85844.50;;;26.52;29.74
41312;BME280;27061;41.648;24.568;2023-08-31T11:30:28;85814.66;;;26.42;30.35
41312;BME280;27061;41.648;24.568;2023-08-31T11:33:08;85832.88;;;26.56;30.43
41312;BME280;27061;41.648;24.568;2023-08-31T11:35:40;85801.19;;;26.21;30.69
41312;BME280;27061;41.648;24.568;2023-08-31T11:38:08;85822.38;;;26.44;29.90
41312;BME280;27061;41.648;24.568;2023-08-31T11:40:36;85799.59;;;26.14;29.31
41312;BME280;27061;41.648;24.568;2023-08-31T11:43:04;85801.09;;;26.02;30.38
41312;BME280;27061;41.648;24.568;2023-08-31T11:45:34;85823.88;;;26.21;31.22
41312;BME280;27061;41.648;24.568;2023-08-31T11:48:07;85836.31;;;26.27;31.40
41312;BME280;27061;41.648;24.568;2023-08-31T11:50:35;85815.41;;;26.00;31.73
41312;BME280;27061;41.648;24.568;2023-08-31T11:53:03;85821.84;;;26.20;32.61
41312;BME280;27061;41.648;24.568;2023-08-31T11:55:33;85837.00;;;26.16;33.04
41312;BME280;27061;41.648;24.568;2023-08-31T11:58:00;85824.69;;;26.20;33.36
41312;BME280;27061;41.648;24.568;2023-08-31T12:00:28;85786.38;;;25.89;35.41
41312;BME280;27061;41.648;24.568;2023-08-31T12:03:00;85809.28;;;26.06;33.87
41312;BME280;27061;41.648;24.568;2023-08-31T12:05:29;85797.94;;;26.06;34.50
41312;BME280;27061;41.648;24.568;2023-08-31T12:07:58;85823.47;;;26.28;34.27
41312;BME280;27061;41.648;24.568;2023-08-31T12:10:26;85816.59;;;26.35;33.42
41312;BME280;27061;41.648;24.568;2023-08-31T12:12:54;85819.56;;;26.22;33.31
41312;BME280;27061;41.648;24.568;2023-08-31T12:15:34;85782.16;;;26.09;34.40
41312;BME280;27061;41.648;24.568;2023-08-31T12:18:12;85809.81;;;26.30;35.08
41312;BME280;27061;41.648;24.568;2023-08-31T12:20:47;85806.59;;;26.25;33.99
41312;BME280;27061;41.648;24.568;2023-08-31T12:26:16;85819.16;;;26.29;34.23
41312;BME280;27061;41.648;24.568;2023-08-31T12:28:44;85841.16;;;26.17;34.06
41312;BME280;27061;41.648;24.568;2023-08-31T12:31:11;85831.03;;;26.31;33.47
41312;BME280;27061;41.648;24.568;2023-08-31T12:33:38;85813.13;;;25.92;33.97
41312;BME280;27061;41.648;24.568;2023-08-31T12:36:06;85831.19;;;26.08;34.82
41312;BME280;27061;41.648;24.568;2023-08-31T12:38:33;85801.47;;;25.96;35.98
41312;BME280;27061;41.648;24.568;2023-08-31T12:41:00;85792.97;;;26.07;35.63
41312;BME280;27061;41.648;24.568;2023-08-31T12:43:29;85809.94;;;26.39;35.85
41312;BME280;27061;41.648;24.568;2023-08-31T12:46:00;85812.09;;;26.38;36.44
41312;BME280;27061;41.648;24.568;2023-08-31T12:48:27;85814.94;;;26.38;35.88
41312;BME280;27061;41.648;24.568;2023-08-31T12:50:54;85760.13;;;26.10;34.95
41312;BME280;27061;41.648;24.568;2023-08-31T12:53:22;85810.44;;;26.52;35.27
41312;BME280;27061;41.648;24.568;2023-08-31T12:55:50;85817.47;;;26.53;36.91
41312;BME280;27061;41.648;24.568;2023-08-31T12:58:17;85810.44;;;26.52;36.33
41312;BME280;27061;41.648;24.568;2023-08-31T13:00:46;85776.19;;;26.24;34.54
41312;BME280;27061;41.648;24.568;2023-08-31T13:03:15;85739.63;;;25.99;33.62
41312;BME280;27061;41.648;24.568;2023-08-31T13:05:42;85736.66;;;26.01;34.17
41312;BME280;27061;41.648;24.568;2023-08-31T13:08:10;85817.28;;;26.76;32.92
41312;BME280;27061;41.648;24.568;2023-08-31T13:10:38;85813.22;;;26.73;35.03
41312;BME280;27061;41.648;24.568;2023-08-31T13:13:05;85784.19;;;26.62;35.96
41312;BME280;27061;41.648;24.568;2023-08-31T13:15:32;85815.19;;;26.55;35.10
41312;BME280;27061;41.648;24.568;2023-08-31T13:18:00;85811.91;;;26.61;35.72
41312;BME280;27061;41.648;24.568;2023-08-31T13:20:27;85773.00;;;26.49;36.14
41312;BME280;27061;41.648;24.568;2023-08-31T13:22:54;85830.41;;;26.71;34.43
41312;BME280;27061;41.648;24.568;2023-08-31T13:25:22;85833.44;;;26.58;34.49
41312;BME280;27061;41.648;24.568;2023-08-31T13:27:52;85839.91;;;26.57;34.87
41312;BME280;27061;41.648;24.568;2023-08-31T13:30:19;85841.31;;;26.37;34.94